Time;durP1;ratioP1;P1;durP2;ratioP2;P2;SDS_P1;SDS_P2;PMS_P1;PMS_P2;Temp;Humidity;BMP_temperature;BMP_pressure;BME280_temperature;BME280_humidity;BME280_pressure;Samples;Min_cycle;Max_cycle;Signal;HPM_P1;HPM_P2
2022/12/19 00:01:38;;;;;;;90.90;41.45;;;;;;;-3.38;100.00;98477.66;5037441;28;20135;-71
2022/12/19 00:04:09;;;;;;;73.13;36.20;;;;;;;-3.43;100.00;98473.28;5035724;28;20053;-72
2022/12/19 00:06:37;;;;;;;77.22;36.85;;;;;;;-3.28;100.00;98472.88;5034258;28;20110;-71
2022/12/19 00:09:11;;;;;;;72.47;35.10;;;;;;;-3.38;100.00;98475.13;5033213;28;20107;-71
2022/12/19 00:11:39;;;;;;;86.05;40.70;;;;;;;-3.33;100.00;98471.84;5039954;28;20407;-72
2022/12/19 00:14:10;;;;;;;81.95;37.78;;;;;;;-3.46;100.00;98463.94;5041394;28;20562;-71
2022/12/19 00:16:37;;;;;;;80.93;39.22;;;;;;;-3.49;100.00;98465.50;5037159;28;20968;-71
2022/12/19 00:19:05;;;;;;;70.63;36.13;;;;;;;-3.48;100.00;98468.09;5038687;28;20064;-71
2022/12/19 00:21:33;;;;;;;70.45;35.42;;;;;;;-3.40;100.00;98465.75;5041284;28;20452;-71
2022/12/19 00:24:03;;;;;;;66.13;34.30;;;;;;;-3.13;100.00;98460.53;5038729;28;20049;-71
2022/12/19 00:26:46;;;;;;;62.17;32.45;;;;;;;-2.98;100.00;98458.41;5036967;28;20145;-71
2022/12/19 00:29:13;;;;;;;69.90;33.67;;;;;;;-2.88;100.00;98454.41;5036980;28;20503;-71
2022/12/19 00:31:42;;;;;;;59.85;31.58;;;;;;;-2.79;100.00;98462.25;5038598;28;20437;-71
2022/12/19 00:34:09;;;;;;;78.40;36.45;;;;;;;-2.79;100.00;98467.31;5026111;28;20140;-71
2022/12/19 00:36:37;;;;;;;72.45;33.55;;;;;;;-2.79;100.00;98461.41;5037050;28;20088;-71
2022/12/19 00:39:05;;;;;;;75.68;35.72;;;;;;;-2.86;100.00;98465.47;5039401;28;20974;-70
2022/12/19 00:41:36;;;;;;;77.38;36.53;;;;;;;-2.91;100.00;98463.66;5035509;28;20529;-71
2022/12/19 00:44:15;;;;;;;;;;;;;;;-2.97;100.00;98449.94;5038831;28;20499;-71
2022/12/19 00:46:42;;;;;;;80.53;37.92;;;;;;;-2.96;100.00;98448.28;5035426;28;19925;-71
2022/12/19 00:49:17;;;;;;;75.30;36.03;;;;;;;-2.96;100.00;98454.22;5036870;28;20103;-71
2022/12/19 00:51:45;;;;;;;66.30;32.28;;;;;;;-2.86;100.00;98449.38;5038719;28;20450;-71
2022/12/19 00:54:12;;;;;;;73.18;36.42;;;;;;;-2.82;100.00;98443.53;5032629;28;20157;-71
2022/12/19 00:56:41;;;;;;;69.60;34.20;;;;;;;-2.67;100.00;98440.50;5036994;28;20114;-71
2022/12/19 00:59:09;;;;;;;67.47;35.30;;;;;;;-2.56;100.00;98444.16;5037428;28;20053;-71
2022/12/19 01:01:39;;;;;;;63.15;31.45;;;;;;;-2.46;100.00;98429.97;5034991;28;20048;-71
2022/12/19 01:04:09;;;;;;;67.97;33.20;;;;;;;-2.45;100.00;98429.16;5037859;28;20045;-71
2022/12/19 01:06:57;;;;;;;63.58;32.70;;;;;;;-2.29;100.00;98430.34;5035322;28;20519;-72
2022/12/19 01:09:29;;;;;;;74.78;33.15;;;;;;;-2.26;100.00;98417.69;5037486;28;20090;-71
2022/12/19 01:14:42;;;;;;;72.93;34.95;;;;;;;-2.28;100.00;98419.34;5038953;28;20510;-71
2022/12/19 01:17:10;;;;;;;68.72;34.78;;;;;;;-2.26;100.00;98418.53;5039572;28;20049;-71
2022/12/19 01:19:37;;;;;;;68.18;33.70;;;;;;;-2.23;100.00;98407.59;5047014;28;22176;-71
2022/12/19 01:22:10;;;;;;;71.85;32.47;;;;;;;-2.16;100.00;98412.00;5033027;28;20049;-71
2022/12/19 01:24:38;;;;;;;56.95;30.45;;;;;;;-2.20;100.00;98402.56;5035745;28;20059;-72
2022/12/19 01:27:05;;;;;;;65.10;31.95;;;;;;;-2.15;100.00;98406.91;5034697;28;20048;-72
2022/12/19 01:29:33;;;;;;;78.05;35.55;;;;;;;-2.22;100.00;98400.00;5036727;28;20061;-71
2022/12/19 01:32:03;;;;;;;73.40;36.40;;;;;;;-2.27;100.00;98393.97;5035276;28;20483;-71
2022/12/19 01:34:31;;;;;;;69.97;33.38;;;;;;;-2.19;100.00;98394.09;5034547;28;20052;-71
2022/12/19 01:36:58;;;;;;;77.05;37.72;;;;;;;-2.31;100.00;98397.25;5038146;28;20056;-71
2022/12/19 01:39:26;;;;;;;68.13;34.58;;;;;;;-2.32;100.00;98410.81;5036985;28;20044;-71
2022/12/19 01:41:58;;;;;;;64.38;32.38;;;;;;;-2.32;100.00;98413.34;5038292;28;20072;-71
2022/12/19 01:44:25;;;;;;;67.30;33.65;;;;;;;-2.20;100.00;98423.78;5037037;28;20041;-71
2022/12/19 01:46:58;;;;;;;61.78;31.55;;;;;;;-2.09;100.00;98420.63;5033080;28;20072;-71
2022/12/19 01:49:34;;;;;;;70.15;32.47;;;;;;;-2.18;100.00;98418.72;5032441;28;20483;-71
2022/12/19 01:52:06;;;;;;;82.07;38.67;;;;;;;-2.38;100.00;98429.31;5039033;28;20057;-71
2022/12/19 01:54:40;;;;;;;79.30;38.97;;;;;;;-2.60;100.00;98420.38;5035650;28;20787;-71
2022/12/19 01:57:11;;;;;;;79.30;36.38;;;;;;;-2.48;100.00;98419.78;5034175;28;20064;-71
2022/12/19 01:59:51;;;;;;;63.22;33.45;;;;;;;-2.65;100.00;98415.97;5033990;28;20061;-71
2022/12/19 02:02:32;;;;;;;68.68;34.28;;;;;;;-2.78;100.00;98423.31;5036241;28;20053;-71
2022/12/19 02:05:03;;;;;;;59.05;31.30;;;;;;;-2.65;100.00;98421.91;5035588;28;20049;-71
2022/12/19 02:07:31;;;;;;;69.80;34.55;;;;;;;-2.74;100.00;98424.25;5037572;28;20048;-71
2022/12/19 02:09:59;;;;;;;79.18;36.83;;;;;;;-2.73;100.00;98428.53;5035472;28;20060;-71
2022/12/19 02:12:29;;;;;;;81.05;39.70;;;;;;;-2.90;100.00;98434.88;5035507;28;20052;-71
2022/12/19 02:14:57;;;;;;;81.22;38.17;;;;;;;-2.91;100.00;98426.41;5033291;28;20041;-71
2022/12/19 02:17:36;;;;;;;84.80;40.23;;;;;;;-2.88;100.00;98423.06;5038923;28;20121;-71
2022/12/19 02:20:29;;;;;;;66.60;34.75;;;;;;;-3.04;100.00;98419.28;5033536;28;20562;-72
2022/12/19 02:23:14;;;;;;;78.53;38.72;;;;;;;-2.82;100.00;98415.59;5039438;28;20091;-71
2022/12/19 02:25:41;;;;;;;70.20;35.88;;;;;;;-2.60;100.00;98410.19;5039355;28;20550;-71
2022/12/19 02:28:33;;;;;;;68.28;33.88;;;;;;;-2.68;100.00;98410.84;5034377;28;20049;-71
2022/12/19 02:31:29;;;;;;;60.83;32.35;;;;;;;-2.73;100.00;98413.28;5037614;28;20055;-71
2022/12/19 02:34:06;;;;;;;65.40;31.67;;;;;;;-2.75;100.00;98408.16;5049427;28;20069;-71
2022/12/19 02:36:40;;;;;;;79.05;38.00;;;;;;;-2.60;100.00;98415.28;5039457;28;20072;-70
2022/12/19 02:39:24;;;;;;;66.97;34.78;;;;;;;-2.55;100.00;98421.31;5034931;28;20101;-71
2022/12/19 02:41:57;;;;;;;78.65;37.60;;;;;;;-2.63;100.00;98417.72;5031935;28;20132;-71
2022/12/19 02:44:30;;;;;;;62.20;32.60;;;;;;;-2.44;100.00;98418.16;5034047;28;20052;-71
2022/12/19 02:46:59;;;;;;;71.68;34.00;;;;;;;-2.43;100.00;98414.78;5037404;28;20515;-71
2022/12/19 02:49:29;;;;;;;67.03;32.97;;;;;;;-2.45;100.00;98417.28;5034414;28;20049;-71
2022/12/19 02:52:07;;;;;;;62.55;32.22;;;;;;;-2.44;100.00;98408.84;5035390;28;20053;-71
2022/12/19 02:54:34;;;;;;;84.45;39.72;;;;;;;-2.64;100.00;98408.41;5037089;28;20065;-71
2022/12/19 02:57:24;;;;;;;82.63;39.28;;;;;;;-2.75;100.00;98402.22;5036337;28;20048;-71
2022/12/19 03:00:04;;;;;;;72.93;37.25;;;;;;;-2.87;100.00;98410.41;5031140;28;20044;-71
2022/12/19 03:03:07;;;;;;;71.88;36.42;;;;;;;-2.88;100.00;98416.28;5036919;28;20280;-71
2022/12/19 03:05:57;;;;;;;82.05;41.08;;;;;;;-2.94;100.00;98416.16;5008001;28;20080;-71
2022/12/19 03:08:31;;;;;;;78.93;37.88;;;;;;;-2.92;100.00;98423.81;5036311;28;20054;-70
2022/12/19 03:11:05;;;;;;;78.68;39.78;;;;;;;-2.96;100.00;98422.88;5032374;28;20053;-71
2022/12/19 03:13:35;;;;;;;;;;;;;;;-3.03;100.00;98419.34;5035960;28;20049;-71
2022/12/19 03:16:03;;;;;;;84.32;39.85;;;;;;;-3.08;100.00;98425.09;5041052;28;20281;-71
2022/12/19 03:18:31;;;;;;;90.60;40.28;;;;;;;-3.03;100.00;98424.41;5041808;28;20064;-71
2022/12/19 03:21:40;;;;;;;67.60;35.97;;;;;;;-2.92;100.00;98411.94;5032369;28;20151;-71
2022/12/19 03:24:09;;;;;;;70.57;34.80;;;;;;;-2.75;100.00;98420.00;5036746;28;20050;-70
2022/12/19 03:26:44;;;;;;;75.38;36.42;;;;;;;-2.71;100.00;98410.75;5036418;28;20516;-71
2022/12/19 03:29:20;;;;;;;74.15;37.55;;;;;;;-2.73;100.00;98415.81;5030902;28;20053;-71
2022/12/19 03:31:48;;;;;;;63.63;31.52;;;;;;;-2.59;100.00;98419.53;5027600;28;20324;-71
2022/12/19 03:34:20;;;;;;;66.40;33.22;;;;;;;-2.40;100.00;98412.31;5028744;28;20046;-71
2022/12/19 03:36:51;;;;;;;62.60;32.00;;;;;;;-2.31;100.00;98415.06;5034100;28;20052;-71
2022/12/19 03:39:19;;;;;;;69.05;34.80;;;;;;;-2.25;100.00;98417.75;5035275;28;20053;-72
2022/12/19 03:44:36;;;;;;;72.47;34.47;;;;;;;-2.25;100.00;98422.81;5039740;28;20051;-71
2022/12/19 03:47:13;;;;;;;60.30;30.20;;;;;;;-2.18;100.00;98414.50;5038114;28;20128;-71
2022/12/19 03:49:41;;;;;;;70.05;33.30;;;;;;;-1.79;100.00;98420.38;5044522;28;20049;-71
2022/12/19 03:52:35;;;;;;;63.97;31.88;;;;;;;-1.71;100.00;98427.34;5043562;28;20053;-71
2022/12/19 03:55:09;;;;;;;57.90;30.38;;;;;;;-1.37;100.00;98417.81;5042076;28;20529;-71
2022/12/19 03:57:48;;;;;;;54.42;28.80;;;;;;;-1.13;100.00;98424.16;5040544;28;20059;-71
2022/12/19 04:00:17;;;;;;;54.88;27.30;;;;;;;-1.04;100.00;98405.63;5039291;28;20060;-71
2022/12/19 04:02:47;;;;;;;54.25;26.92;;;;;;;-0.83;100.00;98410.22;5040099;28;20128;-71
2022/12/19 04:05:18;;;;;;;49.00;25.70;;;;;;;-0.66;100.00;98408.78;5045751;28;20052;-71
2022/12/19 04:07:47;;;;;;;46.40;23.85;;;;;;;-0.65;100.00;98407.94;5043698;28;20160;-71
2022/12/19 04:10:18;;;;;;;52.28;24.92;;;;;;;-0.37;100.00;98403.25;5026802;28;20051;-71
2022/12/19 04:12:54;;;;;;;45.67;23.63;;;;;;;-0.35;100.00;98397.31;5037755;28;20472;-71
2022/12/19 04:15:35;;;;;;;48.63;23.73;;;;;;;-0.27;100.00;98393.19;5039075;28;20045;-70
2022/12/19 04:18:05;;;;;;;47.05;22.60;;;;;;;-0.19;100.00;98384.78;5040161;28;20053;-71
2022/12/19 04:20:38;;;;;;;41.72;22.60;;;;;;;-0.09;100.00;98373.84;5045451;28;20056;-70
2022/12/19 04:23:22;;;;;;;42.50;23.10;;;;;;;-0.06;100.00;98371.34;5042118;28;20053;-71
2022/12/19 04:25:54;;;;;;;42.22;22.75;;;;;;;-0.05;100.00;98366.25;5052456;28;20056;-71
2022/12/19 04:28:39;;;;;;;41.88;22.52;;;;;;;-0.11;100.00;98366.19;5052560;28;20044;-70
2022/12/19 04:31:08;;;;;;;44.40;23.02;;;;;;;0.06;100.00;98366.38;5038894;28;20651;-71
2022/12/19 04:33:35;;;;;;;46.53;22.80;;;;;;;0.10;100.00;98368.13;5034574;28;20056;-71
2022/12/19 04:36:03;;;;;;;41.03;21.00;;;;;;;0.14;100.00;98364.78;5039296;28;20259;-71
2022/12/19 04:38:31;;;;;;;47.85;22.75;;;;;;;0.24;100.00;98352.13;5034172;28;20050;-71
2022/12/19 04:40:58;;;;;;;41.72;23.05;;;;;;;0.37;100.00;98356.53;5037328;28;20082;-71
2022/12/19 04:43:25;;;;;;;41.42;22.48;;;;;;;0.41;100.00;98342.91;5040673;28;20062;-70
2022/12/19 04:45:52;;;;;;;36.80;21.00;;;;;;;0.42;100.00;98334.44;5038864;28;20471;-71
2022/12/19 04:48:23;;;;;;;45.58;22.02;;;;;;;0.44;100.00;98332.75;5038844;28;20058;-71
2022/12/19 04:50:51;;;;;;;40.22;22.58;;;;;;;0.43;100.00;98335.28;5039762;28;20045;-70
2022/12/19 04:53:18;;;;;;;40.00;20.45;;;;;;;0.46;100.00;98338.75;5040509;28;20059;-70
2022/12/19 04:55:46;;;;;;;46.67;22.73;;;;;;;0.53;100.00;98337.09;5037265;28;20057;-70
2022/12/19 04:58:13;;;;;;;47.78;24.08;;;;;;;0.52;100.00;98341.34;5035342;28;20049;-71
2022/12/19 05:00:47;;;;;;;42.35;21.75;;;;;;;0.56;100.00;98337.13;5035806;28;20132;-71
2022/12/19 05:03:15;;;;;;;45.03;23.00;;;;;;;0.62;100.00;98335.47;5038989;28;20049;-71
2022/12/19 05:05:42;;;;;;;42.03;21.75;;;;;;;0.55;100.00;98320.09;5039177;28;20985;-70
2022/12/19 05:08:10;;;;;;;44.67;23.83;;;;;;;0.57;100.00;98326.03;5035185;28;20514;-71
2022/12/19 05:10:38;;;;;;;45.33;23.88;;;;;;;0.65;100.00;98318.47;5036324;28;20373;-71
2022/12/19 05:13:06;;;;;;;39.33;22.17;;;;;;;0.66;100.00;98315.91;5035418;28;20064;-70
2022/12/19 05:15:33;;;;;;;41.45;22.90;;;;;;;0.73;100.00;98320.25;5039272;28;20049;-70
2022/12/19 05:18:00;;;;;;;43.38;23.33;;;;;;;0.83;100.00;98327.13;5041528;28;20056;-71
2022/12/19 05:20:27;;;;;;;37.55;20.35;;;;;;;0.94;100.00;98331.50;5037928;28;20060;-70
2022/12/19 05:22:55;;;;;;;35.47;19.40;;;;;;;0.93;100.00;98327.22;5039673;28;20067;-70
2022/12/19 05:25:22;;;;;;;36.85;19.30;;;;;;;1.02;100.00;98338.34;5038054;28;20041;-71
2022/12/19 05:27:49;;;;;;;38.83;21.27;;;;;;;0.99;100.00;98328.13;5037542;28;20502;-71
2022/12/19 05:30:17;;;;;;;40.13;21.42;;;;;;;0.99;100.00;98333.22;5036876;28;20048;-70
2022/12/19 05:32:44;;;;;;;40.08;22.48;;;;;;;0.90;100.00;98337.41;5037936;28;20050;-70
2022/12/19 05:35:11;;;;;;;39.83;22.75;;;;;;;0.84;100.00;98333.09;5032020;28;20056;-70
2022/12/19 05:37:39;;;;;;;38.05;22.63;;;;;;;0.86;100.00;98335.69;5039015;28;20386;-70
2022/12/19 05:40:07;;;;;;;44.85;22.45;;;;;;;0.93;100.00;98340.84;5039637;28;20064;-71
2022/12/19 05:42:34;;;;;;;41.60;22.70;;;;;;;0.91;100.00;98332.31;5039241;28;20045;-71
2022/12/19 05:45:02;;;;;;;45.65;23.85;;;;;;;0.85;100.00;98341.66;5037503;28;20057;-71
2022/12/19 05:47:29;;;;;;;43.97;25.63;;;;;;;0.72;100.00;98333.00;5036191;28;20059;-71
2022/12/19 05:49:56;;;;;;;44.30;24.20;;;;;;;0.77;100.00;98351.78;5034573;28;20353;-70
2022/12/19 05:52:23;;;;;;;46.67;26.20;;;;;;;0.78;100.00;98350.97;5037342;28;20048;-71
2022/12/19 05:54:51;;;;;;;49.05;25.80;;;;;;;0.85;100.00;98354.44;5037045;28;20052;-70
2022/12/19 05:57:18;;;;;;;48.88;26.70;;;;;;;0.94;100.00;98357.06;5033534;28;20057;-71
2022/12/19 05:59:45;;;;;;;48.67;24.58;;;;;;;1.06;100.00;98363.97;5035622;28;20063;-71
2022/12/19 06:02:13;;;;;;;38.28;20.13;;;;;;;1.21;100.00;98369.19;5036505;28;20042;-73
2022/12/19 06:04:40;;;;;;;40.05;20.25;;;;;;;1.29;100.00;98361.56;5038488;28;20049;-70
2022/12/19 06:07:08;;;;;;;39.63;21.95;;;;;;;1.34;100.00;98347.09;5037396;28;20674;-70
2022/12/19 06:09:35;;;;;;;36.72;19.98;;;;;;;1.46;100.00;98344.66;5034399;28;20496;-70
2022/12/19 06:12:03;;;;;;;38.85;20.52;;;;;;;1.48;100.00;98342.91;5034481;28;20049;-70
2022/12/19 06:14:30;;;;;;;34.55;19.35;;;;;;;1.50;100.00;98340.38;5039992;28;20059;-70
2022/12/19 06:16:58;;;;;;;37.72;19.92;;;;;;;1.51;100.00;98329.31;5034081;28;20045;-70
2022/12/19 06:19:25;;;;;;;34.97;18.83;;;;;;;1.57;100.00;98331.88;5036045;28;20049;-70
2022/12/19 06:21:52;;;;;;;35.60;19.65;;;;;;;1.59;100.00;98343.00;5039879;28;20057;-70
2022/12/19 06:24:22;;;;;;;35.15;19.55;;;;;;;1.71;100.00;98332.84;5036600;28;20099;-70
2022/12/19 06:26:50;;;;;;;36.72;19.88;;;;;;;1.67;100.00;98333.66;5035684;28;20426;-71
2022/12/19 06:29:17;;;;;;;36.65;20.45;;;;;;;1.70;100.00;98331.09;5033254;28;20092;-71
2022/12/19 06:31:45;;;;;;;36.92;20.58;;;;;;;1.73;100.00;98335.38;5038215;28;20120;-71
2022/12/19 06:34:12;;;;;;;37.38;18.77;;;;;;;1.64;100.00;98326.81;5036318;28;20546;-71
2022/12/19 06:36:59;;;;;;;37.20;20.98;;;;;;;1.79;100.00;98332.84;5034306;28;20048;-71
2022/12/19 06:39:34;;;;;;;35.63;18.75;;;;;;;1.98;100.00;98341.47;5037044;28;20052;-71
2022/12/19 06:44:47;;;;;;;41.78;21.92;;;;;;;1.93;100.00;98344.00;5038768;28;20055;-71
2022/12/19 06:47:14;;;;;;;44.40;20.83;;;;;;;1.94;100.00;98330.38;5034863;28;20049;-71
2022/12/19 06:49:41;;;;;;;40.53;20.30;;;;;;;1.82;100.00;98327.75;5033663;28;20163;-71
2022/12/19 06:52:08;;;;;;;35.78;19.85;;;;;;;1.89;100.00;98311.56;5037632;28;20106;-70
2022/12/19 06:54:36;;;;;;;35.50;19.67;;;;;;;1.78;100.00;98313.22;5036648;28;20052;-70
2022/12/19 06:57:03;;;;;;;35.42;20.45;;;;;;;1.84;100.00;98318.38;5036633;28;20135;-70
2022/12/19 06:59:30;;;;;;;35.13;19.83;;;;;;;1.83;100.00;98324.34;5036260;28;20485;-71
2022/12/19 07:02:03;;;;;;;33.30;18.35;;;;;;;1.95;100.00;98320.97;5035739;28;20044;-70
2022/12/19 07:04:36;;;;;;;37.20;19.25;;;;;;;2.18;100.00;98324.47;5036887;28;20463;-71
2022/12/19 07:07:04;;;;;;;31.38;18.13;;;;;;;2.23;100.00;98317.63;5037989;28;20488;-70
2022/12/19 07:09:33;;;;;;;32.83;18.88;;;;;;;2.29;100.00;98319.38;5036911;28;20067;-70
2022/12/19 07:12:01;;;;;;;33.63;18.75;;;;;;;2.45;100.00;98317.69;5033856;28;20060;-70
2022/12/19 07:14:28;;;;;;;35.03;18.77;;;;;;;2.52;100.00;98324.53;5035832;28;20085;-71
2022/12/19 07:16:58;;;;;;;34.03;19.13;;;;;;;2.51;100.00;98321.13;5039763;28;20077;-70
2022/12/19 07:19:25;;;;;;;35.95;19.10;;;;;;;2.43;100.00;98320.25;5041344;28;20474;-70
2022/12/19 07:21:54;;;;;;;31.92;17.13;;;;;;;2.45;100.00;98320.25;5044181;28;20164;-71
2022/12/19 07:24:21;;;;;;;28.58;16.80;;;;;;;2.66;100.00;98311.75;5039621;28;20080;-70
2022/12/19 07:26:49;;;;;;;33.20;18.92;;;;;;;2.50;100.00;98321.13;5040632;28;20156;-70
2022/12/19 07:29:16;;;;;;;31.35;15.30;;;;;;;2.70;100.00;98322.00;5049304;28;20054;-72
2022/12/19 07:31:43;;;;;;;29.25;15.65;;;;;;;2.74;100.00;98325.44;5057622;28;20530;-71
2022/12/19 07:34:11;;;;;;;29.20;16.35;;;;;;;2.78;100.00;98323.69;5048513;28;20063;-71
2022/12/19 07:36:38;;;;;;;31.13;16.70;;;;;;;2.72;100.00;98320.28;5060443;28;20048;-71
2022/12/19 07:39:05;;;;;;;28.77;17.05;;;;;;;2.70;100.00;98323.72;5058041;28;20442;-72
2022/12/19 07:41:36;;;;;;;29.48;17.52;;;;;;;2.72;100.00;98315.16;5058571;28;20087;-72
2022/12/19 07:44:05;;;;;;;31.58;18.17;;;;;;;2.74;100.00;98317.75;5057185;28;20117;-71
2022/12/19 07:46:32;;;;;;;32.13;18.42;;;;;;;2.68;100.00;98326.25;5059634;28;20174;-71
2022/12/19 07:49:00;;;;;;;32.22;18.50;;;;;;;2.83;100.00;98322.00;5058684;28;20055;-71
2022/12/19 07:51:28;;;;;;;28.85;17.55;;;;;;;2.80;100.00;98332.25;5054597;28;20521;-71
2022/12/19 07:53:55;;;;;;;31.77;18.23;;;;;;;2.83;100.00;98324.56;5053512;28;20094;-71
2022/12/19 07:56:22;;;;;;;27.10;15.07;;;;;;;3.03;100.00;98324.56;5056370;28;20052;-71
2022/12/19 07:58:50;;;;;;;31.63;17.45;;;;;;;2.87;100.00;98332.28;5055075;28;20053;-71
2022/12/19 08:01:18;;;;;;;35.85;19.58;;;;;;;2.93;100.00;98327.13;5057767;28;20403;-71
2022/12/19 08:03:45;;;;;;;36.42;19.00;;;;;;;2.93;100.00;98319.44;5058241;28;20048;-72
2022/12/19 08:06:12;;;;;;;30.20;17.40;;;;;;;2.89;100.00;98319.44;5058934;28;20391;-72
2022/12/19 08:08:40;;;;;;;30.40;16.25;;;;;;;3.35;100.00;98320.25;5058133;28;20053;-71
2022/12/19 08:11:16;;;;;;;27.95;16.13;;;;;;;3.50;100.00;98313.38;5056312;28;21878;-71
2022/12/19 08:13:44;;;;;;;27.08;14.18;;;;;;;3.59;100.00;98317.63;5056892;28;20049;-71
2022/12/19 08:16:13;;;;;;;24.95;14.95;;;;;;;3.64;100.00;98319.31;5056394;28;20041;-71
2022/12/19 08:18:41;;;;;;;26.00;13.95;;;;;;;3.64;100.00;98316.75;5055484;28;20048;-71
2022/12/19 08:21:08;;;;;;;28.65;14.32;;;;;;;3.86;100.00;98309.84;5055697;28;20082;-72
2022/12/19 08:23:37;;;;;;;23.77;13.07;;;;;;;3.87;100.00;98306.41;5056684;28;20053;-71
2022/12/19 08:26:07;;;;;;;26.38;14.05;;;;;;;3.76;100.00;98297.88;5056521;28;20499;-72
2022/12/19 08:28:35;;;;;;;23.45;11.82;;;;;;;3.89;100.00;98303.81;5053014;28;20482;-71
2022/12/19 08:31:14;;;;;;;25.77;14.35;;;;;;;4.01;100.00;98303.75;5054092;28;20051;-72
2022/12/19 08:33:42;;;;;;;22.80;12.65;;;;;;;4.05;100.00;98297.75;5057997;28;20072;-72
2022/12/19 08:36:12;;;;;;;22.67;12.00;;;;;;;4.24;100.00;98313.06;5054514;28;20041;-71
2022/12/19 08:38:39;;;;;;;24.50;13.25;;;;;;;4.04;100.00;98305.47;5055579;28;20293;-71
2022/12/19 08:41:07;;;;;;;23.00;12.57;;;;;;;4.30;100.00;98306.19;5053279;28;20114;-71
2022/12/19 08:43:34;;;;;;;25.50;12.40;;;;;;;4.19;100.00;98315.66;5059772;28;20053;-72
2022/12/19 08:46:02;;;;;;;22.40;11.82;;;;;;;4.32;100.00;98306.19;5057596;28;20144;-71
2022/12/19 08:48:30;;;;;;;20.77;11.93;;;;;;;4.35;100.00;98298.44;5059007;28;20071;-71
2022/12/19 08:51:04;;;;;;;20.35;11.65;;;;;;;4.45;100.00;98309.50;5051894;28;20052;-71
2022/12/19 08:53:33;;;;;;;22.98;13.02;;;;;;;4.40;100.00;98300.13;5057615;28;20056;-72
2022/12/19 08:56:06;;;;;;;23.35;12.02;;;;;;;4.40;100.00;98299.25;5058292;28;20044;-72
2022/12/19 08:58:34;;;;;;;22.80;11.82;;;;;;;4.50;100.00;98306.06;5055356;28;20052;-71
2022/12/19 09:01:12;;;;;;;29.90;14.40;;;;;;;4.44;100.00;98306.09;5055758;28;20048;-72
2022/12/19 09:03:39;;;;;;;19.17;11.35;;;;;;;4.58;100.00;98298.28;5053574;28;20052;-72
2022/12/19 09:06:27;;;;;;;22.42;11.95;;;;;;;4.56;100.00;98295.75;5055355;28;20119;-72
2022/12/19 09:08:54;;;;;;;22.50;12.18;;;;;;;4.60;100.00;98294.00;5055464;28;20101;-71
2022/12/19 09:11:26;;;;;;;21.92;12.00;;;;;;;4.69;100.00;98296.50;5055274;28;20134;-72
2022/12/19 09:13:56;;;;;;;23.27;12.25;;;;;;;4.76;100.00;98299.88;5052416;28;20329;-72
2022/12/19 09:16:25;;;;;;;19.42;11.48;;;;;;;4.85;100.00;98315.22;5057083;28;20049;-71
2022/12/19 09:18:55;;;;;;;24.00;13.07;;;;;;;4.77;100.00;98301.59;5058400;28;20569;-72
2022/12/19 09:21:24;;;;;;;20.45;11.63;;;;;;;4.87;100.00;98307.53;5051473;28;20053;-72
2022/12/19 09:23:57;;;;;;;20.23;11.02;;;;;;;4.97;100.00;98294.56;5056184;28;20044;-72
2022/12/19 09:26:34;;;;;;;21.15;10.68;;;;;;;5.09;100.00;98300.47;5050322;28;20495;-72
2022/12/19 09:29:03;;;;;;;20.52;10.35;;;;;;;4.97;100.00;98299.72;5052258;28;20041;-72
2022/12/19 09:31:46;;;;;;;23.63;11.10;;;;;;;5.04;100.00;98282.50;5052222;28;20067;-72
2022/12/19 09:34:13;;;;;;;23.38;12.07;;;;;;;5.01;100.00;98279.94;5053387;28;20144;-72
2022/12/19 09:36:40;;;;;;;22.45;11.32;;;;;;;4.94;100.00;98275.72;5054305;28;20044;-72
2022/12/19 09:39:09;;;;;;;20.95;11.52;;;;;;;4.98;100.00;98269.69;5056520;28;20045;-72
2022/12/19 09:41:43;;;;;;;18.42;11.20;;;;;;;5.13;100.00;98276.41;5054578;28;20048;-72
2022/12/19 09:44:29;;;;;;;20.85;11.52;;;;;;;5.01;100.00;98260.22;5053562;28;20135;-72
2022/12/19 09:47:00;;;;;;;20.10;10.95;;;;;;;5.20;100.00;98268.63;5057455;28;20081;-72
2022/12/19 09:49:32;;;;;;;20.85;11.30;;;;;;;5.27;100.00;98261.69;5051169;28;20056;-72
2022/12/19 09:52:05;;;;;;;;;;;;;;;5.27;100.00;98259.13;5055273;28;20048;-72
2022/12/19 09:54:53;;;;;;;21.10;11.00;;;;;;;5.28;100.00;98247.09;5058499;28;19924;-72
2022/12/19 09:57:38;;;;;;;19.92;10.48;;;;;;;5.27;100.00;98253.97;5056997;28;20056;-71
2022/12/19 10:00:07;;;;;;;19.52;10.57;;;;;;;5.38;100.00;98262.44;5042581;28;20063;-72
2022/12/19 10:02:40;;;;;;;20.67;11.50;;;;;;;5.39;100.00;98251.25;5053739;28;20060;-72
2022/12/19 10:05:18;;;;;;;35.97;21.52;;;;;;;5.31;100.00;98259.91;5052364;28;20524;-72
2022/12/19 10:08:21;;;;;;;19.85;11.02;;;;;;;5.41;100.00;98254.66;5052224;28;20061;-72
2022/12/19 10:10:52;;;;;;;18.40;10.68;;;;;;;5.34;100.00;98250.47;5055785;28;20049;-72
2022/12/19 10:14:04;;;;;;;20.85;10.00;;;;;;;5.52;100.00;98243.38;5054194;28;20082;-72
2022/12/19 10:16:39;;;;;;;17.92;9.75;;;;;;;5.56;100.00;98243.31;5054767;28;20491;-71
2022/12/19 10:19:09;;;;;;;17.25;10.32;;;;;;;5.57;100.00;98251.94;5056772;28;20052;-72
2022/12/19 10:21:56;;;;;;;18.23;10.02;;;;;;;5.56;100.00;98251.03;5060230;28;20059;-71
2022/12/19 10:24:49;;;;;;;20.75;9.13;;;;;;;5.61;100.00;98236.41;5049960;28;20048;-71
2022/12/19 10:27:55;;;;;;;15.30;8.80;;;;;;;5.56;100.00;98240.75;5055846;28;20148;-71
2022/12/19 10:30:26;;;;;;;15.32;8.85;;;;;;;5.67;100.00;98230.31;5055269;28;20063;-71
2022/12/19 10:33:19;;;;;;;21.25;10.13;;;;;;;5.52;100.00;98241.69;5055392;28;20057;-71
2022/12/19 10:35:56;;;;;;;15.32;8.60;;;;;;;5.70;100.00;98226.84;5052285;28;20064;-71
2022/12/19 10:38:38;;;;;;;16.63;8.95;;;;;;;5.70;100.00;98229.44;5051409;28;20052;-71
2022/12/19 10:41:23;;;;;;;18.48;9.27;;;;;;;5.74;100.00;98224.22;5050060;28;20135;-72
2022/12/19 10:43:57;;;;;;;16.77;9.13;;;;;;;5.66;100.00;98242.34;5054580;28;20122;-72
2022/12/19 10:46:46;;;;;;;17.75;9.15;;;;;;;5.76;100.00;98243.09;5055694;28;20090;-71
2022/12/19 10:49:25;;;;;;;19.17;10.25;;;;;;;5.78;100.00;98232.78;5055528;28;20409;-71
2022/12/19 10:51:55;;;;;;;17.08;9.73;;;;;;;5.80;100.00;98223.31;5054551;28;20087;-72
2022/12/19 10:54:24;;;;;;;15.48;8.88;;;;;;;5.91;100.00;98225.72;5055602;28;20063;-71
2022/12/19 10:57:24;;;;;;;16.52;9.52;;;;;;;5.79;100.00;98225.03;5050084;28;20288;-71
2022/12/19 10:59:56;;;;;;;14.95;8.90;;;;;;;5.87;100.00;98215.47;5054452;28;20118;-72
2022/12/19 11:03:03;;;;;;;17.38;9.25;;;;;;;5.75;100.00;98197.59;5056485;28;20136;-71
2022/12/19 11:05:52;;;;;;;15.20;8.88;;;;;;;5.76;100.00;98198.44;5032118;28;20057;-72
2022/12/19 11:08:29;;;;;;;18.30;9.75;;;;;;;5.74;100.00;98200.19;5052670;28;20045;-71
2022/12/19 11:11:17;;;;;;;20.58;10.57;;;;;;;5.74;100.00;98195.03;5048839;28;20425;-71
2022/12/19 11:14:26;;;;;;;15.15;9.32;;;;;;;5.82;100.00;98200.94;5054883;28;20064;-72
2022/12/19 11:17:26;;;;;;;17.58;9.05;;;;;;;5.85;100.00;98188.88;5055378;28;20044;-71
2022/12/19 11:20:21;;;;;;;14.48;8.82;;;;;;;5.82;100.00;98175.19;5057866;28;20060;-71
2022/12/19 11:23:13;;;;;;;16.73;9.75;;;;;;;5.85;100.00;98190.59;5051040;28;20602;-71
2022/12/19 11:26:05;;;;;;;16.25;9.20;;;;;;;5.94;100.00;98184.47;5057146;28;20558;-72
2022/12/19 11:28:52;;;;;;;17.70;9.65;;;;;;;5.81;100.00;98174.31;5051649;28;20127;-71
2022/12/19 11:31:40;;;;;;;16.63;10.10;;;;;;;5.85;100.00;98182.88;5052688;28;20537;-71
2022/12/19 11:34:34;;;;;;;15.32;10.13;;;;;;;5.86;100.00;98185.44;5051107;28;20549;-72
2022/12/19 11:37:25;;;;;;;16.02;9.10;;;;;;;6.06;100.00;98182.56;5050851;28;20096;-72
2022/12/19 11:39:57;;;;;;;14.52;9.48;;;;;;;6.07;100.00;98178.28;5053363;28;20064;-71
2022/12/19 11:42:38;;;;;;;16.48;9.50;;;;;;;5.99;100.00;98168.09;5051169;28;20779;-71
2022/12/19 11:45:19;;;;;;;16.13;9.60;;;;;;;6.11;100.00;98155.88;5061884;28;20212;-71
2022/12/19 11:47:55;;;;;;;14.73;8.98;;;;;;;6.13;100.00;98162.72;5048667;28;20589;-72
2022/12/19 11:50:32;;;;;;;15.38;9.10;;;;;;;6.11;100.00;98164.47;5052385;28;20051;-71
2022/12/19 11:53:41;;;;;;;16.77;9.73;;;;;;;6.17;100.00;98156.66;5053778;28;20478;-71